Mc Clure, Virginia
Current Conditions -  °F | °C
As of 5:15 PM on Thursday 23 Oct 2014 (Local Time) from KLNP Reporting Station
Clear Clear  
Wind Chill: 52°   Ceiling: Unl
Heat Index: 52°   Visibility: 10mi
Dew Point: 37°   Wind: 6mph
Humidity: 58%   Direction: 360°N
Pressure: 30.13"   Gusts: NA
Location:  37.082°N, 82.3827°W
Report Text: KLNP 232115Z AUTO 36005KT 10SM CLR 11/03 A3013 RMK AO2
Loading
Personal Weather Stations






























Interactive Weather Map
Tropical Storm Tracking
New forecast layout! Learn more

10-Day Weather Forecast

Advertisements
Track Severe Weather on mobile